Time;durP1;ratioP1;P1;durP2;ratioP2;P2;SDS_P1;SDS_P2;PMS_P1;PMS_P2;Temp;Humidity;BMP_temperature;BMP_pressure;BME280_temperature;BME280_humidity;BME280_pressure;Samples;Min_cycle;Max_cycle;Signal;HPM_P1;HPM_P2
2022/07/22 00:00:30;;;;;;;19.27;14.23;;;17.50;50.20;;;;;;5059896;28;46708;-63
2022/07/22 00:02:55;;;;;;;22.00;13.77;;;17.50;50.40;;;;;;5059184;28;45875;-65
2022/07/22 00:05:21;;;;;;;20.40;15.23;;;17.50;50.50;;;;;;5060856;28;45887;-64
2022/07/22 00:07:47;;;;;;;18.13;14.07;;;17.50;50.70;;;;;;5058961;28;46882;-64
2022/07/22 00:10:13;;;;;;;23.43;15.40;;;17.50;51.10;;;;;;5059777;28;46356;-64
2022/07/22 00:12:39;;;;;;;17.23;14.73;;;17.50;51.10;;;;;;5059779;28;46470;-63
2022/07/22 00:15:05;;;;;;;21.87;13.37;;;17.50;51.20;;;;;;5060693;28;46369;-63
2022/07/22 00:17:31;;;;;;;19.93;13.93;;;17.50;51.20;;;;;;5059780;28;47383;-64
2022/07/22 00:19:57;;;;;;;22.97;14.60;;;17.50;51.20;;;;;;5060611;28;45804;-64
2022/07/22 00:22:22;;;;;;;22.70;13.97;;;17.50;51.20;;;;;;5059399;28;46034;-63
2022/07/22 00:24:48;;;;;;;20.70;14.07;;;17.50;51.20;;;;;;5060679;28;46001;-63
2022/07/22 00:27:14;;;;;;;18.30;14.13;;;17.60;51.20;;;;;;5058277;28;46413;-64
2022/07/22 00:29:39;;;;;;;21.93;15.20;;;17.60;51.20;;;;;;5058972;28;46377;-63
2022/07/22 00:32:05;;;;;;;24.97;15.67;;;17.60;51.10;;;;;;5058025;28;46530;-63
2022/07/22 00:34:30;;;;;;;22.47;15.37;;;17.60;51.30;;;;;;5060151;28;46433;-64
2022/07/22 00:36:56;;;;;;;21.73;14.47;;;17.60;51.40;;;;;;5059157;28;46440;-63
2022/07/22 00:39:22;;;;;;;22.47;15.60;;;17.60;51.50;;;;;;5058081;28;46409;-64
2022/07/22 00:41:48;;;;;;;17.90;13.20;;;17.60;51.60;;;;;;5058364;28;46481;-64
2022/07/22 00:44:14;;;;;;;18.03;13.03;;;17.50;51.70;;;;;;5057668;28;46375;-64
2022/07/22 00:46:40;;;;;;;19.57;13.40;;;17.40;52.00;;;;;;5058947;28;47067;-64
2022/07/22 00:49:06;;;;;;;16.10;13.10;;;17.30;52.20;;;;;;5057161;28;46144;-65
2022/07/22 00:51:32;;;;;;;20.53;15.27;;;17.10;52.70;;;;;;5057297;28;46501;-64
2022/07/22 00:53:59;;;;;;;19.57;13.87;;;17.00;53.00;;;;;;5059443;28;46342;-64
2022/07/22 00:56:26;;;;;;;16.97;13.80;;;16.90;53.00;;;;;;5058329;28;46365;-63
2022/07/22 00:58:53;;;;;;;23.80;14.03;;;16.80;53.20;;;;;;5057349;28;45851;-63
2022/07/22 01:01:19;;;;;;;19.83;14.53;;;16.70;53.30;;;;;;5059746;28;46355;-63
2022/07/22 01:03:45;;;;;;;20.10;13.70;;;16.70;53.40;;;;;;5062815;28;46374;-62
2022/07/22 01:06:11;;;;;;;20.30;14.00;;;16.60;53.50;;;;;;5061756;28;46282;-63
2022/07/22 01:08:38;;;;;;;18.20;14.17;;;16.60;53.60;;;;;;5062306;28;45908;-63
2022/07/22 01:11:15;;;;;;;21.23;14.50;;;16.50;53.60;;;;;;5061752;28;46287;-63
2022/07/22 01:13:41;;;;;;;23.47;15.47;;;16.50;53.80;;;;;;5062341;28;46422;-63
2022/07/22 01:16:09;;;;;;;19.37;14.10;;;16.40;53.90;;;;;;5060573;28;46623;-62
2022/07/22 01:18:36;;;;;;;23.00;14.00;;;16.40;53.90;;;;;;5061539;28;46298;-64
2022/07/22 01:21:02;;;;;;;20.80;15.10;;;16.40;54.00;;;;;;5062027;28;46034;-63
2022/07/22 01:23:28;;;;;;;21.93;14.10;;;16.40;53.90;;;;;;5061989;28;46421;-63
2022/07/22 01:25:53;;;;;;;25.90;16.00;;;16.40;53.90;;;;;;5062377;28;46475;-63
2022/07/22 01:28:19;;;;;;;18.03;13.57;;;16.40;54.00;;;;;;5061210;28;46923;-63
2022/07/22 01:30:45;;;;;;;23.73;14.17;;;16.40;54.10;;;;;;5061774;28;46455;-63
2022/07/22 01:33:10;;;;;;;21.83;15.57;;;16.40;54.10;;;;;;5062946;28;46928;-63
2022/07/22 01:35:36;;;;;;;22.70;15.30;;;16.40;54.30;;;;;;5061173;28;47391;-64
2022/07/22 01:38:02;;;;;;;19.73;15.30;;;16.40;54.20;;;;;;5060949;28;46335;-64
2022/07/22 01:40:28;;;;;;;32.37;18.10;;;16.40;54.20;;;;;;5061204;28;46679;-63
2022/07/22 01:42:53;;;;;;;28.93;16.60;;;16.50;54.40;;;;;;5062170;28;46513;-64
2022/07/22 01:45:19;;;;;;;24.70;17.37;;;16.50;54.40;;;;;;5061917;28;46913;-64
2022/07/22 01:47:45;;;;;;;23.20;18.23;;;16.40;54.50;;;;;;5061497;28;46388;-63
2022/07/22 01:50:11;;;;;;;20.53;16.70;;;16.50;55.00;;;;;;5061662;28;46867;-63
2022/07/22 01:52:39;;;;;;;22.83;17.03;;;16.50;55.20;;;;;;5059529;28;46337;-64
2022/07/22 01:55:08;;;;;;;25.50;17.30;;;16.50;55.30;;;;;;5061513;28;47780;-63
2022/07/22 01:57:35;;;;;;;26.10;17.27;;;16.50;55.40;;;;;;5061551;28;46368;-64
2022/07/22 02:00:03;;;;;;;19.40;13.90;;;16.50;55.30;;;;;;5059933;28;46460;-63
2022/07/22 02:02:28;;;;;;;26.73;14.73;;;16.50;55.40;;;;;;5061918;28;46338;-64
2022/07/22 02:04:54;;;;;;;24.33;15.47;;;16.40;55.30;;;;;;5060873;28;47214;-64
2022/07/22 02:07:19;;;;;;;21.33;15.47;;;16.40;55.40;;;;;;5060720;28;46337;-63
2022/07/22 02:09:45;;;;;;;21.30;15.70;;;16.50;55.60;;;;;;5060104;28;45807;-63
2022/07/22 02:12:11;;;;;;;18.47;14.93;;;16.30;55.30;;;;;;5059086;28;46655;-63
2022/07/22 02:14:36;;;;;;;20.20;13.60;;;16.30;55.40;;;;;;5059307;28;46485;-63
2022/07/22 02:17:02;;;;;;;19.57;12.50;;;16.30;55.50;;;;;;5061122;28;46502;-64
2022/07/22 02:19:27;;;;;;;15.50;11.30;;;16.10;55.50;;;;;;5060242;28;46227;-64
2022/07/22 02:21:53;;;;;;;19.67;12.53;;;16.10;55.50;;;;;;5060760;28;46581;-63
2022/07/22 02:24:19;;;;;;;20.90;12.40;;;16.00;55.50;;;;;;5059662;28;46341;-63
2022/07/22 02:26:44;;;;;;;15.40;12.00;;;15.80;55.50;;;;;;5060224;28;46440;-63
2022/07/22 02:29:10;;;;;;;18.47;12.53;;;15.70;55.50;;;;;;5057803;28;46449;-64
2022/07/22 02:31:35;;;;;;;24.73;13.50;;;15.60;55.50;;;;;;5059597;28;46309;-64
2022/07/22 02:34:01;;;;;;;16.03;11.57;;;15.50;55.50;;;;;;5060362;28;47402;-64
2022/07/22 02:36:27;;;;;;;20.00;11.20;;;15.40;55.30;;;;;;5059694;28;45949;-64
2022/07/22 02:38:52;;;;;;;19.20;13.50;;;15.40;55.00;;;;;;5060349;28;46772;-63
2022/07/22 02:41:18;;;;;;;21.67;13.40;;;15.40;54.80;;;;;;5059536;28;46543;-64
2022/07/22 02:43:43;;;;;;;23.33;16.43;;;15.40;54.60;;;;;;5060529;28;46074;-64
2022/07/22 02:46:09;;;;;;;23.07;15.20;;;15.50;54.40;;;;;;5061370;28;46654;-63
2022/07/22 02:48:35;;;;;;;21.50;15.67;;;15.50;54.40;;;;;;5060816;28;46472;-63
2022/07/22 02:51:00;;;;;;;23.10;14.17;;;15.60;54.50;;;;;;5059748;28;46497;-63
2022/07/22 02:53:26;;;;;;;28.13;13.83;;;15.60;54.50;;;;;;5059799;28;47120;-63
2022/07/22 02:55:51;;;;;;;24.93;15.73;;;15.60;54.70;;;;;;5060853;28;46424;-63
2022/07/22 02:58:17;;;;;;;20.50;15.20;;;15.60;54.80;;;;;;5057695;28;46410;-63
2022/07/22 03:00:43;;;;;;;23.23;13.10;;;15.50;54.80;;;;;;5061031;28;46405;-63
2022/07/22 03:03:08;;;;;;;24.93;13.33;;;15.50;55.10;;;;;;5058976;28;47003;-63
2022/07/22 03:05:34;;;;;;;21.70;11.90;;;15.50;55.00;;;;;;5058647;28;46374;-63
2022/07/22 03:07:59;;;;;;;17.73;11.43;;;15.30;55.00;;;;;;5060061;28;46596;-63
2022/07/22 03:10:25;;;;;;;21.80;11.10;;;15.20;54.90;;;;;;5060745;28;46500;-63
2022/07/22 03:12:51;;;;;;;18.87;12.17;;;15.20;54.80;;;;;;5060521;28;46420;-63
2022/07/22 03:15:16;;;;;;;17.00;11.60;;;15.10;54.60;;;;;;5061165;28;46363;-64
2022/07/22 03:17:42;;;;;;;14.10;11.80;;;15.10;54.80;;;;;;5060033;28;46271;-63
2022/07/22 03:20:09;;;;;;;15.73;10.90;;;15.00;54.70;;;;;;5061052;28;46503;-63
2022/07/22 03:22:35;;;;;;;18.80;11.50;;;14.90;54.70;;;;;;5059187;28;46489;-63
2022/07/22 03:25:01;;;;;;;15.80;11.47;;;14.80;54.60;;;;;;5059010;28;46353;-64
2022/07/22 03:27:27;;;;;;;17.80;12.70;;;14.80;54.70;;;;;;5060509;28;46298;-64
2022/07/22 03:29:52;;;;;;;19.03;11.33;;;14.80;55.60;;;;;;5060026;28;46471;-63
2022/07/22 03:32:18;;;;;;;23.23;11.63;;;14.80;54.40;;;;;;5060748;28;46519;-63
2022/07/22 03:34:44;;;;;;;17.30;12.03;;;14.80;54.30;;;;;;5060690;28;46446;-62
2022/07/22 03:37:10;;;;;;;23.33;12.33;;;14.80;54.30;;;;;;5059549;28;46425;-63
2022/07/22 03:39:36;;;;;;;22.10;12.47;;;14.80;54.30;;;;;;5060853;28;45911;-63
2022/07/22 03:42:02;;;;;;;21.20;12.37;;;14.80;54.30;;;;;;5058463;28;47037;-63
2022/07/22 03:44:27;;;;;;;18.27;12.33;;;14.90;54.20;;;;;;5059592;28;46323;-63
2022/07/22 03:46:53;;;;;;;18.90;13.03;;;14.80;54.00;;;;;;5059041;28;46469;-63
2022/07/22 03:49:18;;;;;;;18.37;12.77;;;14.90;54.00;;;;;;5061352;28;46337;-62
2022/07/22 03:51:44;;;;;;;32.13;12.90;;;14.80;54.20;;;;;;5058990;28;46422;-63
2022/07/22 03:54:10;;;;;;;19.83;12.37;;;14.90;54.10;;;;;;5060725;28;46418;-63
2022/07/22 03:56:35;;;;;;;23.90;12.97;;;14.90;53.90;;;;;;5058612;28;46476;-62
2022/07/22 03:59:01;;;;;;;20.00;13.20;;;14.90;53.70;;;;;;5060521;28;46510;-62
2022/07/22 04:01:27;;;;;;;24.30;13.53;;;15.00;53.80;;;;;;5059636;28;46453;-63
2022/07/22 04:03:52;;;;;;;15.20;11.87;;;15.00;53.70;;;;;;5060631;28;46303;-64
2022/07/22 04:06:18;;;;;;;26.10;11.80;;;15.10;53.80;;;;;;5058835;28;46640;-63
2022/07/22 04:08:43;;;;;;;24.07;12.90;;;15.00;53.80;;;;;;5059941;28;46555;-63
2022/07/22 04:11:09;;;;;;;21.03;12.10;;;15.00;53.70;;;;;;5058576;28;46282;-64
2022/07/22 04:13:35;;;;;;;22.23;12.67;;;15.10;53.50;;;;;;5059118;28;46536;-63
2022/07/22 04:16:00;;;;;;;22.53;13.20;;;15.10;53.30;;;;;;5059728;28;46379;-63
2022/07/22 04:18:26;;;;;;;19.83;13.97;;;15.10;53.30;;;;;;5056121;28;46412;-63
2022/07/22 04:20:51;;;;;;;22.13;13.17;;;15.20;53.10;;;;;;5058687;28;47042;-63
2022/07/22 04:23:17;;;;;;;22.43;13.10;;;15.30;53.10;;;;;;5057743;28;46454;-63
2022/07/22 04:25:44;;;;;;;20.17;11.90;;;15.40;52.90;;;;;;5059662;28;45814;-63
2022/07/22 04:28:09;;;;;;;24.90;13.40;;;15.40;52.70;;;;;;5058458;28;46373;-63
2022/07/22 04:30:35;;;;;;;23.40;13.17;;;15.50;52.40;;;;;;5059460;28;47750;-63
2022/07/22 04:33:00;;;;;;;23.10;13.73;;;15.60;52.40;;;;;;5059290;28;46457;-64
2022/07/22 04:35:26;;;;;;;18.77;12.73;;;15.70;52.40;;;;;;5059150;28;46455;-63
2022/07/22 04:37:51;;;;;;;25.03;12.90;;;15.80;53.10;;;;;;5062105;28;46402;-63
2022/07/22 04:40:17;;;;;;;23.20;12.30;;;15.80;52.20;;;;;;5070656;28;46485;-63
2022/07/22 04:42:42;;;;;;;24.43;12.27;;;15.90;52.30;;;;;;5063873;28;46327;-63
2022/07/22 04:45:08;;;;;;;24.93;12.40;;;16.00;52.20;;;;;;5064434;28;46374;-63
2022/07/22 04:47:34;;;;;;;25.93;11.93;;;16.20;52.00;;;;;;5063317;28;46412;-63
2022/07/22 04:50:00;;;;;;;22.73;12.67;;;16.30;51.60;;;;;;5063856;28;46321;-63
2022/07/22 04:52:26;;;;;;;23.27;12.40;;;16.50;51.30;;;;;;5064875;28;46389;-63
2022/07/22 04:54:51;;;;;;;25.20;12.37;;;16.60;50.70;;;;;;5063325;28;46412;-63
2022/07/22 04:57:17;;;;;;;24.20;14.17;;;16.80;50.20;;;;;;5061381;28;46363;-64
2022/07/22 04:59:42;;;;;;;25.37;14.10;;;17.00;50.00;;;;;;5062372;28;46477;-63
2022/07/22 05:02:08;;;;;;;18.00;12.83;;;17.20;49.70;;;;;;5062366;28;46397;-62
2022/07/22 05:04:34;;;;;;;25.20;12.83;;;18.20;48.70;;;;;;5062307;28;46103;-63
2022/07/22 05:06:59;;;;;;;19.20;10.63;;;19.80;47.50;;;;;;5057811;28;46401;-63
2022/07/22 05:09:25;;;;;;;19.47;11.70;;;21.30;43.60;;;;;;5063178;28;49393;-63
2022/07/22 05:11:51;;;;;;;20.17;11.50;;;22.60;41.60;;;;;;5060381;28;46494;-62
2022/07/22 05:14:16;;;;;;;18.70;12.03;;;23.60;38.00;;;;;;5063382;28;46354;-62
2022/07/22 05:16:42;;;;;;;31.30;12.90;;;24.50;36.30;;;;;;5062315;28;46355;-61
2022/07/22 05:19:08;;;;;;;22.13;13.20;;;25.30;34.10;;;;;;5061557;28;47912;-63
2022/07/22 05:21:33;;;;;;;23.27;10.80;;;26.00;31.90;;;;;;5061874;28;46484;-63
2022/07/22 05:23:59;;;;;;;23.53;12.10;;;26.60;29.90;;;;;;5061714;28;46444;-62
2022/07/22 05:26:28;;;;;;;19.90;12.47;;;27.30;28.10;;;;;;5062706;28;46650;-63
2022/07/22 05:28:53;;;;;;;17.27;11.53;;;27.80;27.50;;;;;;5061764;28;46390;-63
2022/07/22 05:31:19;;;;;;;22.20;11.03;;;28.50;25.50;;;;;;5062032;28;46483;-61
2022/07/22 05:33:45;;;;;;;18.13;13.03;;;29.10;23.70;;;;;;5061308;28;46390;-61
2022/07/22 05:36:10;;;;;;;17.07;11.87;;;29.50;22.40;;;;;;5062806;28;46142;-60
2022/07/22 05:38:36;;;;;;;28.83;12.10;;;30.00;21.10;;;;;;5060571;28;46759;-61
2022/07/22 05:41:02;;;;;;;17.07;12.30;;;30.40;20.10;;;;;;5061411;28;46411;-61
2022/07/22 05:43:28;;;;;;;20.57;14.37;;;30.80;18.90;;;;;;5061869;28;46347;-61
2022/07/22 05:45:54;;;;;;;16.30;12.63;;;31.30;18.20;;;;;;5062037;28;46365;-61
2022/07/22 05:48:19;;;;;;;16.90;13.03;;;31.50;16.90;;;;;;5059458;28;46453;-62
2022/07/22 05:50:45;;;;;;;16.37;12.50;;;32.00;16.10;;;;;;5061512;28;45805;-61
2022/07/22 05:53:10;;;;;;;14.57;11.40;;;32.30;14.80;;;;;;5061730;28;46472;-62
2022/07/22 05:55:36;;;;;;;14.40;12.23;;;32.50;14.20;;;;;;5062498;28;46196;-62
2022/07/22 05:58:02;;;;;;;18.50;12.43;;;32.30;13.90;;;;;;5061223;28;47310;-63
2022/07/22 06:00:27;;;;;;;24.30;12.30;;;32.60;13.60;;;;;;5062006;28;46374;-63
2022/07/22 06:02:53;;;;;;;16.30;12.23;;;32.80;13.20;;;;;;5061118;28;46444;-61
2022/07/22 06:05:19;;;;;;;15.87;11.50;;;32.90;13.10;;;;;;5061453;28;46338;-61
2022/07/22 06:07:45;;;;;;;13.17;11.40;;;33.20;13.40;;;;;;5060546;28;47468;-62
2022/07/22 06:10:11;;;;;;;16.50;12.50;;;33.30;13.20;;;;;;5061579;28;46449;-62
2022/07/22 06:12:36;;;;;;;15.00;13.00;;;33.10;12.50;;;;;;5056843;28;46560;-62
2022/07/22 06:15:03;;;;;;;19.00;12.80;;;32.30;14.00;;;;;;5059572;28;46618;-63
2022/07/22 06:17:28;;;;;;;17.13;13.57;;;31.40;16.40;;;;;;5058577;28;47496;-61
2022/07/22 06:19:54;;;;;;;20.13;12.97;;;30.50;17.90;;;;;;5058931;28;46529;-62
2022/07/22 06:22:19;;;;;;;15.70;12.90;;;29.80;20.10;;;;;;5060262;28;46334;-62
2022/07/22 06:24:45;;;;;;;17.17;11.80;;;29.40;21.20;;;;;;5059974;28;46439;-63
2022/07/22 06:27:11;;;;;;;21.57;13.73;;;28.90;21.90;;;;;;5060491;28;46550;-62
2022/07/22 06:29:36;;;;;;;17.53;13.03;;;28.70;22.20;;;;;;5060811;28;46315;-61
2022/07/22 06:32:02;;;;;;;16.53;13.63;;;28.40;22.80;;;;;;5059917;28;46374;-63
2022/07/22 06:34:29;;;;;;;22.43;14.50;;;27.90;23.40;;;;;;5059689;28;46437;-63
2022/07/22 06:36:54;;;;;;;22.77;14.57;;;27.30;24.00;;;;;;5059435;28;46529;-62
2022/07/22 06:39:20;;;;;;;16.33;14.33;;;27.00;24.10;;;;;;5059149;28;46381;-62
2022/07/22 06:41:46;;;;;;;16.20;14.50;;;26.80;24.10;;;;;;5057559;28;46441;-62
2022/07/22 06:44:11;;;;;;;17.87;13.87;;;26.60;24.10;;;;;;5058266;28;46770;-62
2022/07/22 06:46:37;;;;;;;19.60;14.23;;;26.30;25.00;;;;;;5058988;28;46354;-61
2022/07/22 06:49:02;;;;;;;19.30;15.67;;;26.20;25.30;;;;;;5060528;28;46414;-62
2022/07/22 06:51:28;;;;;;;22.63;15.10;;;25.90;25.70;;;;;;5059642;28;46519;-63
2022/07/22 06:53:54;;;;;;;18.37;15.50;;;25.70;26.30;;;;;;5059372;28;46410;-62
2022/07/22 06:56:19;;;;;;;18.60;14.83;;;25.60;26.30;;;;;;5060445;28;46420;-64
2022/07/22 06:58:45;;;;;;;24.07;15.73;;;25.60;26.30;;;;;;5059025;28;46547;-63
2022/07/22 07:01:10;;;;;;;21.27;16.13;;;25.50;26.20;;;;;;5060006;28;46370;-63
2022/07/22 07:03:36;;;;;;;20.10;16.67;;;25.50;26.20;;;;;;5058633;28;46370;-62
2022/07/22 07:06:03;;;;;;;26.70;16.30;;;25.50;26.20;;;;;;5060296;28;46368;-62
2022/07/22 07:08:28;;;;;;;22.57;15.77;;;25.20;26.60;;;;;;5056044;28;46706;-62
2022/07/22 07:10:54;;;;;;;22.43;16.40;;;24.90;27.50;;;;;;5059215;28;46404;-63
2022/07/22 07:13:20;;;;;;;18.73;14.80;;;25.00;27.70;;;;;;5059499;28;46421;-63
2022/07/22 07:15:45;;;;;;;19.03;14.47;;;25.10;27.40;;;;;;5058363;28;46476;-64
2022/07/22 07:18:11;;;;;;;22.27;14.40;;;25.30;27.00;;;;;;5057196;28;46365;-64
2022/07/22 07:20:37;;;;;;;19.27;14.73;;;25.30;27.00;;;;;;5059222;28;45937;-62
2022/07/22 07:23:03;;;;;;;23.03;15.70;;;25.50;26.70;;;;;;5058986;28;45942;-63
2022/07/22 07:25:29;;;;;;;23.63;15.40;;;25.50;26.60;;;;;;5059415;28;47000;-62
2022/07/22 07:27:55;;;;;;;20.50;16.70;;;25.60;26.60;;;;;;5062195;28;45838;-62
2022/07/22 07:30:21;;;;;;;19.67;15.23;;;25.80;26.40;;;;;;5068630;28;46334;-63
2022/07/22 07:32:47;;;;;;;20.50;14.13;;;25.80;26.40;;;;;;5056722;28;46347;-62
2022/07/22 07:35:12;;;;;;;17.00;13.20;;;26.00;26.50;;;;;;5059607;28;46650;-61
2022/07/22 07:37:38;;;;;;;19.93;14.20;;;25.80;26.80;;;;;;5059231;28;46450;-62
2022/07/22 07:40:06;;;;;;;22.00;15.07;;;25.90;26.50;;;;;;5059846;28;45932;-63
2022/07/22 07:42:32;;;;;;;22.13;13.23;;;25.90;26.50;;;;;;5060047;28;46552;-64
2022/07/22 07:44:57;;;;;;;16.17;12.67;;;26.10;26.50;;;;;;5059236;28;46310;-64
2022/07/22 07:47:23;;;;;;;17.80;12.93;;;26.40;26.30;;;;;;5060607;28;46824;-63
2022/07/22 07:49:49;;;;;;;20.17;13.10;;;26.60;25.70;;;;;;5061534;28;46425;-63
2022/07/22 07:52:16;;;;;;;20.30;13.70;;;26.60;26.90;;;;;;5064605;28;46417;-62
2022/07/22 07:54:42;;;;;;;19.97;13.33;;;26.80;25.20;;;;;;5060744;28;46343;-62
2022/07/22 07:57:10;;;;;;;17.77;12.50;;;26.80;25.10;;;;;;5060917;28;46378;-62
2022/07/22 07:59:36;;;;;;;18.10;13.77;;;26.80;25.20;;;;;;5061828;28;46515;-62
2022/07/22 08:02:03;;;;;;;19.73;12.20;;;26.70;25.10;;;;;;5062224;28;46429;-62
2022/07/22 08:04:29;;;;;;;21.60;12.70;;;26.60;25.80;;;;;;5059660;28;47111;-63
2022/07/22 08:06:55;;;;;;;17.17;11.90;;;26.70;25.20;;;;;;5059868;28;46815;-64
2022/07/22 08:09:20;;;;;;;19.00;12.83;;;26.80;24.60;;;;;;5059348;28;46461;-63
2022/07/22 08:11:46;;;;;;;22.93;12.10;;;26.90;24.20;;;;;;5059522;28;46334;-63
2022/07/22 08:14:12;;;;;;;14.43;11.07;;;27.00;23.80;;;;;;5061795;28;47091;-62
2022/07/22 08:16:37;;;;;;;16.60;12.00;;;26.90;24.00;;;;;;5060493;28;46419;-62
2022/07/22 08:19:03;;;;;;;14.70;11.90;;;26.80;24.10;;;;;;5061128;28;46240;-63
2022/07/22 08:21:29;;;;;;;16.03;10.60;;;26.90;23.90;;;;;;5063899;28;46646;-63
2022/07/22 08:23:55;;;;;;;16.43;11.13;;;26.90;24.70;;;;;;5059610;28;46513;-63
2022/07/22 08:26:20;;;;;;;17.60;11.40;;;26.80;23.80;;;;;;5061649;28;46476;-64
2022/07/22 08:28:46;;;;;;;14.80;10.63;;;26.80;23.60;;;;;;5060483;28;46403;-62
2022/07/22 08:31:12;;;;;;;14.50;9.60;;;26.70;23.60;;;;;;5058031;28;46514;-62
2022/07/22 08:33:37;;;;;;;16.63;11.57;;;26.80;23.70;;;;;;5060038;28;46734;-62
2022/07/22 08:36:04;;;;;;;14.33;10.47;;;27.20;23.10;;;;;;5057042;28;46452;-62
2022/07/22 08:38:30;;;;;;;13.10;10.47;;;27.50;22.40;;;;;;5058061;28;46488;-62
2022/07/22 08:40:56;;;;;;;15.20;11.50;;;27.80;22.00;;;;;;5057839;28;45909;-62
2022/07/22 08:43:24;;;;;;;13.63;10.40;;;27.90;21.50;;;;;;5058531;28;46416;-62
2022/07/22 08:45:50;;;;;;;18.80;10.97;;;27.80;21.50;;;;;;5059052;28;45863;-62
2022/07/22 08:48:15;;;;;;;16.03;10.60;;;28.10;20.90;;;;;;5058562;28;46464;-62
2022/07/22 08:50:42;;;;;;;17.33;10.40;;;28.10;20.70;;;;;;5056603;28;46397;-62
2022/07/22 08:53:12;;;;;;;20.50;9.10;;;28.30;20.20;;;;;;5058465;28;46431;-62
2022/07/22 08:55:48;;;;;;;13.07;10.13;;;28.50;19.90;;;;;;5051082;28;46432;-60
2022/07/22 08:58:15;;;;;;;12.27;9.77;;;28.70;19.30;;;;;;5056047;28;46416;-62
2022/07/22 09:00:40;;;;;;;12.80;9.67;;;28.70;18.50;;;;;;5056244;28;46588;-62
2022/07/22 09:03:25;;;;;;;13.60;11.20;;;28.70;18.40;;;;;;5055383;28;49177;-62
2022/07/22 09:05:51;;;;;;;14.40;9.10;;;28.70;18.00;;;;;;5058040;28;47120;-61
2022/07/22 09:08:18;;;;;;;16.83;10.53;;;28.90;18.30;;;;;;5055692;28;45866;-62
2022/07/22 09:10:43;;;;;;;13.97;9.07;;;29.10;17.90;;;;;;5057577;28;46429;-61
2022/07/22 09:13:10;;;;;;;13.80;9.90;;;29.20;17.10;;;;;;5056594;28;47149;-62
2022/07/22 09:15:40;;;;;;;14.30;10.00;;;29.00;17.00;;;;;;5056329;28;46240;-63
2022/07/22 09:18:07;;;;;;;13.00;9.30;;;29.00;17.50;;;;;;5055549;28;46404;-62
2022/07/22 09:20:34;;;;;;;12.90;9.13;;;29.00;17.00;;;;;;5058032;28;45926;-62
2022/07/22 09:23:01;;;;;;;13.80;8.80;;;29.00;17.10;;;;;;5060195;28;46673;-66
2022/07/22 09:25:31;;;;;;;13.50;9.50;;;29.00;17.10;;;;;;5060653;28;46431;-62
2022/07/22 09:28:20;;;;;;;13.80;9.00;;;28.90;17.00;;;;;;5059556;28;46499;-62
2022/07/22 09:30:46;;;;;;;12.17;8.80;;;28.90;17.00;;;;;;5061003;28;46607;-63
2022/07/22 09:33:12;;;;;;;12.83;9.00;;;28.90;17.00;;;;;;5060687;28;48028;-63
2022/07/22 09:35:39;;;;;;;12.80;9.03;;;29.10;17.10;;;;;;5058797;28;46429;-63
2022/07/22 09:38:10;;;;;;;10.80;9.13;;;29.10;16.40;;;;;;5062386;28;46314;-62
2022/07/22 09:40:40;;;;;;;12.43;8.50;;;29.00;15.80;;;;;;5059739;28;46487;-64
2022/07/22 09:43:12;;;;;;;12.97;8.20;;;29.00;15.70;;;;;;5059653;28;47971;-63
2022/07/22 09:46:05;;;;;;;11.80;8.10;;;29.30;15.50;;;;;;5059629;28;46457;-62
2022/07/22 09:48:30;;;;;;;15.83;8.33;;;29.40;15.00;;;;;;5055728;28;46512;-62
2022/07/22 09:50:57;;;;;;;14.13;8.40;;;29.30;14.80;;;;;;5060306;28;46722;-62
2022/07/22 09:53:26;;;;;;;10.37;7.90;;;29.30;14.60;;;;;;5059395;28;47914;-62
2022/07/22 09:55:52;;;;;;;10.47;7.30;;;29.50;14.70;;;;;;5059759;28;46682;-63
2022/07/22 09:58:18;;;;;;;10.80;7.47;;;29.80;14.00;;;;;;5060166;28;46389;-64
2022/07/22 10:00:44;;;;;;;13.63;8.60;;;29.50;13.50;;;;;;5059533;28;46615;-63
2022/07/22 10:03:21;;;;;;;10.70;8.20;;;29.30;13.60;;;;;;5059910;28;47238;-63
2022/07/22 10:05:47;;;;;;;11.97;7.93;;;29.40;13.70;;;;;;5058257;28;46643;-63
2022/07/22 10:08:12;;;;;;;11.90;7.47;;;29.50;13.50;;;;;;5057447;28;46410;-63
2022/07/22 10:10:39;;;;;;;11.40;7.50;;;29.30;13.00;;;;;;5060869;28;46526;-63
2022/07/22 10:13:08;;;;;;;9.70;6.90;;;29.10;13.20;;;;;;5060299;28;46440;-64
2022/07/22 10:15:36;;;;;;;14.80;7.20;;;29.10;13.10;;;;;;5056592;28;46694;-64
2022/07/22 10:18:06;;;;;;;10.83;7.53;;;29.30;12.60;;;;;;5058324;28;46399;-65
2022/07/22 10:20:33;;;;;;;9.10;7.47;;;29.30;12.50;;;;;;5059250;28;46413;-64
2022/07/22 10:23:01;;;;;;;13.70;7.80;;;29.20;12.60;;;;;;5059069;28;47205;-63
2022/07/22 10:25:29;;;;;;;10.80;7.40;;;29.40;12.50;;;;;;5056915;28;46697;-64
2022/07/22 10:28:03;;;;;;;10.97;7.03;;;29.80;12.40;;;;;;5059802;28;46465;-63
2022/07/22 10:30:33;;;;;;;9.77;7.43;;;29.80;11.70;;;;;;5055371;28;46685;-64
2022/07/22 10:33:14;;;;;;;10.47;7.63;;;29.70;11.80;;;;;;5057966;28;46486;-63
2022/07/22 10:36:02;;;;;;;17.27;7.37;;;29.50;11.60;;;;;;5058887;28;46358;-63
2022/07/22 10:38:29;;;;;;;10.03;7.43;;;29.70;11.30;;;;;;5058260;28;46563;-64
2022/07/22 10:41:04;;;;;;;11.27;7.33;;;29.80;10.60;;;;;;5060129;28;46435;-65
2022/07/22 10:43:42;;;;;;;9.43;7.63;;;29.80;10.80;;;;;;5059902;28;46411;-65
2022/07/22 10:46:08;;;;;;;11.40;7.50;;;29.80;10.90;;;;;;5060886;28;46465;-65
2022/07/22 10:48:36;;;;;;;9.20;6.67;;;29.80;11.10;;;;;;5059023;28;46413;-65
2022/07/22 10:51:09;;;;;;;8.77;6.50;;;29.90;11.10;;;;;;5059330;28;46790;-65
2022/07/22 10:53:56;;;;;;;9.93;7.10;;;29.80;10.70;;;;;;5059597;28;46694;-64
2022/07/22 10:56:30;;;;;;;10.17;6.83;;;30.00;10.40;;;;;;5058771;28;46425;-65
2022/07/22 10:58:57;;;;;;;14.00;6.60;;;29.90;10.10;;;;;;5059293;28;46369;-64
2022/07/22 11:01:29;;;;;;;11.37;7.10;;;29.90;10.10;;;;;;5060256;28;46485;-64
2022/07/22 11:04:06;;;;;;;10.23;7.50;;;30.30;10.30;;;;;;5070329;28;46572;-67
2022/07/22 11:06:31;;;;;;;10.00;7.43;;;30.40;9.90;;;;;;5061688;28;46361;-64
2022/07/22 11:09:00;;;;;;;14.20;7.27;;;30.50;9.80;;;;;;5059144;28;46379;-65
2022/07/22 11:11:38;;;;;;;8.53;6.37;;;30.30;10.00;;;;;;5060268;28;46360;-65
2022/07/22 11:14:10;;;;;;;12.43;6.90;;;30.30;9.80;;;;;;5058343;28;46432;-66
2022/07/22 11:16:36;;;;;;;9.27;6.50;;;30.30;10.10;;;;;;5062434;28;46347;-65
2022/07/22 11:19:02;;;;;;;9.23;7.13;;;30.10;10.10;;;;;;5060392;28;46364;-65
2022/07/22 11:21:29;;;;;;;11.83;6.80;;;29.90;10.40;;;;;;5061137;28;46843;-65
2022/07/22 11:23:58;;;;;;;9.40;7.73;;;29.90;10.50;;;;;;5059630;28;47170;-66
2022/07/22 11:26:40;;;;;;;9.70;7.20;;;29.90;10.30;;;;;;5062228;28;46540;-65
2022/07/22 11:29:06;;;;;;;13.77;7.07;;;30.10;9.90;;;;;;5061566;28;46498;-65
2022/07/22 11:31:32;;;;;;;11.40;7.13;;;30.00;9.90;;;;;;5061191;28;46639;-65
2022/07/22 11:34:06;;;;;;;12.87;7.20;;;30.00;10.10;;;;;;5059375;28;47030;-65
2022/07/22 11:36:34;;;;;;;10.67;7.50;;;30.30;9.70;;;;;;5059889;28;46413;-66
2022/07/22 11:39:00;;;;;;;13.30;6.53;;;30.40;9.70;;;;;;5060184;28;46952;-64
2022/07/22 11:41:29;;;;;;;9.30;7.20;;;30.70;9.40;;;;;;5060648;28;46389;-63
2022/07/22 11:43:54;;;;;;;13.03;7.43;;;30.50;9.20;;;;;;5059090;28;47417;-63
2022/07/22 11:46:20;;;;;;;8.70;7.43;;;30.50;9.40;;;;;;5043103;28;46730;-64
2022/07/22 11:48:46;;;;;;;11.30;7.67;;;30.50;9.30;;;;;;5058679;28;46442;-63
2022/07/22 11:51:14;;;;;;;12.90;7.67;;;30.40;9.30;;;;;;5060897;28;46423;-64
2022/07/22 11:53:41;;;;;;;11.00;7.87;;;30.50;9.40;;;;;;5058723;28;47227;-64
2022/07/22 11:56:10;;;;;;;13.50;6.87;;;30.70;9.10;;;;;;5058568;28;46425;-64
2022/07/22 11:58:47;;;;;;;11.70;7.63;;;30.60;9.00;;;;;;5058912;28;46730;-64
2022/07/22 12:01:15;;;;;;;10.83;7.63;;;30.60;9.00;;;;;;5058152;28;46515;-64
2022/07/22 12:03:45;;;;;;;13.83;7.10;;;30.80;9.10;;;;;;5059863;28;47827;-64
2022/07/22 12:06:13;;;;;;;11.87;8.50;;;30.80;8.90;;;;;;5063761;28;46424;-65
2022/07/22 12:08:41;;;;;;;11.40;8.07;;;30.70;8.90;;;;;;5067744;28;46401;-64
2022/07/22 12:11:09;;;;;;;8.53;7.30;;;30.60;8.90;;;;;;5057317;28;46538;-64
2022/07/22 12:13:34;;;;;;;11.90;7.37;;;30.70;8.70;;;;;;5056468;28;47889;-64
2022/07/22 12:16:15;;;;;;;12.43;7.60;;;30.80;8.60;;;;;;5058487;28;46708;-63
2022/07/22 12:18:41;;;;;;;10.97;7.03;;;30.70;8.50;;;;;;5057336;28;45854;-64
2022/07/22 12:21:07;;;;;;;15.13;7.50;;;30.80;8.40;;;;;;5055966;28;46435;-64
2022/07/22 12:23:33;;;;;;;16.80;7.50;;;31.00;8.20;;;;;;5054744;28;47125;-63
2022/07/22 12:26:01;;;;;;;10.13;6.60;;;31.40;7.80;;;;;;5055715;28;46347;-64
2022/07/22 12:28:27;;;;;;;12.03;7.30;;;31.50;7.00;;;;;;5057239;28;46499;-64